Time;durP1;ratioP1;P1;durP2;ratioP2;P2;SDS_P1;SDS_P2;PMS_P1;PMS_P2;Temp;Humidity;BMP_temperature;BMP_pressure;BME280_temperature;BME280_humidity;BME280_pressure;Samples;Min_cycle;Max_cycle;Signal;HPM_P1;HPM_P2
2021/05/21 01:00:38;;;;;;;;;;;;;;;;;;;;;
2021/05/21 02:18:44;;;;;;;;;;;;;;;;;;;;;
2021/05/21 02:21:53;;;;;;;20.70;2.47;;;12.70;31.50;;;;;;6054423;23;20453;-82
2021/05/21 02:37:50;;;;;;;;;;;;;;;;;;;;;
2021/05/21 03:02:49;;;;;;;;;;;;;;;;;;;;;
2021/05/21 03:05:55;;;;;;;;;;;;;;;;;;;;;
2021/05/21 03:33:41;;;;;;;12.10;1.50;;;10.80;60.40;;;;;;5999441;23;20429;-82
2021/05/21 03:36:46;;;;;;;;;;;;;;;;;;;;;
2021/05/21 03:39:21;;;;;;;12.37;1.53;;;10.80;63.90;;;;;;6119592;23;20404;-83
2021/05/21 03:52:35;;;;;;;;;;;;;;;;;;;;;
2021/05/21 04:12:26;;;;;;;;;;;;;;;;;;;;;
2021/05/21 04:16:00;;;;;;;;;;;;;;;;;;;;;
2021/05/21 05:43:02;;;;;;;16.23;2.03;;;13.30;35.50;;;;;;5866602;24;20421;-83
2021/05/21 05:52:09;;;;;;;20.30;2.00;;;13.90;33.40;;;;;;6070132;23;20418;-83
2021/05/21 05:57:58;;;;;;;;;;;;;;;;;;;;;
2021/05/21 06:00:44;;;;;;;22.37;1.80;;;15.30;21.20;;;;;;6163211;23;20428;-82
2021/05/21 06:03:20;;;;;;;23.70;1.93;;;16.10;20.40;;;;;;6153043;23;20488;-82
2021/05/21 06:06:20;;;;;;;;;;;;;;;;;;;;;
2021/05/21 06:08:57;;;;;;;;;;;;;;;;;;;;;
2021/05/21 06:12:11;;;;;;;22.07;2.00;;;16.10;16.60;;;;;;6113760;23;20426;-84
2021/05/21 06:14:48;;;;;;;21.50;1.50;;;15.60;15.60;;;;;;6148089;23;20418;-82
2021/05/21 06:20:37;;;;;;;24.63;2.17;;;15.20;18.50;;;;;;6150035;23;20432;-83
2021/05/21 06:29:37;;;;;;;19.30;1.80;;;15.00;18.30;;;;;;6163672;23;20440;-83
2021/05/21 06:32:42;;;;;;;;;;;;;;;;;;;;;
2021/05/21 06:35:16;;;;;;;17.77;1.73;;;15.10;18.80;;;;;;5927934;23;20464;-84
2021/05/21 06:49:38;;;;;;;;;;;;;;;;;;;;;
2021/05/21 06:52:16;;;;;;;33.40;2.87;;;16.80;11.90;;;;;;6018434;23;20410;-82
2021/05/21 07:55:26;;;;;;;26.27;2.97;;;15.50;1.30;;;;;;5869120;24;20425;-82
2021/05/21 08:24:43;;;;;;;33.40;3.43;;;17.70;1.00;;;;;;5902539;24;20428;-84
2021/05/21 08:58:01;;;;;;;;;;;;;;;;;;;;;
2021/05/21 13:47:54;;;;;;;39.00;2.60;;;19.70;1.00;;;;;;5853374;24;20200;-84
2021/05/21 15:01:11;;;;;;;;;;;;;;;;;;;;;
2021/05/21 15:07:00;;;;;;;39.70;2.40;;;19.70;1.00;;;;;;4935580;28;20453;-84
2021/05/21 15:10:15;;;;;;;;;;;;;;;;;;;;;
2021/05/21 15:13:33;;;;;;;41.47;2.20;;;18.60;1.00;;;;;;5023741;28;21042;-84
2021/05/21 15:16:19;;;;;;;33.37;2.23;;;18.60;1.00;;;;;;5017555;28;20448;-82
2021/05/21 15:25:11;;;;;;;40.20;2.50;;;20.60;1.00;;;;;;5042289;28;20454;-81
2021/05/21 15:34:30;;;;;;;41.07;2.70;;;21.70;1.00;;;;;;4967098;28;20455;-84
2021/05/21 15:36:57;;;;;;;36.30;1.77;;;22.60;1.00;;;;;;4958944;28;20458;-83
2021/05/21 15:46:08;;;;;;;49.57;2.43;;;20.40;1.00;;;;;;4950582;28;20490;-89
2021/05/21 15:48:37;;;;;;;35.83;1.90;;;19.80;1.00;;;;;;5011619;28;20798;-86
2021/05/21 15:51:10;;;;;;;38.50;3.57;;;19.20;1.00;;;;;;5035518;28;20483;-84
2021/05/21 15:53:48;;;;;;;32.80;1.83;;;18.80;1.00;;;;;;5035663;28;20548;-84
2021/05/21 15:56:30;;;;;;;36.50;2.60;;;18.40;1.00;;;;;;5036233;28;20460;-85
2021/05/21 15:59:03;;;;;;;34.00;2.40;;;18.30;1.00;;;;;;5035886;28;20463;-87
2021/05/21 16:01:34;;;;;;;33.73;2.10;;;18.00;1.00;;;;;;5036305;28;21002;-86
2021/05/21 16:04:05;;;;;;;29.70;4.83;;;17.60;1.00;;;;;;5035941;28;20448;-85
2021/05/21 16:06:46;;;;;;;31.50;2.13;;;17.40;1.00;;;;;;5035641;28;20452;-88
2021/05/21 16:09:14;;;;;;;31.17;3.20;;;17.30;1.00;;;;;;5037877;28;21045;-86
2021/05/21 16:11:42;;;;;;;40.90;19.63;;;16.80;1.00;;;;;;5036134;28;20523;-85
2021/05/21 16:14:09;;;;;;;37.10;2.80;;;15.50;1.00;;;;;;5034919;28;20467;-85
2021/05/21 16:16:38;;;;;;;27.50;2.53;;;14.30;15.80;;;;;;5035295;28;20542;-82
2021/05/21 16:19:05;;;;;;;21.33;2.40;;;13.80;22.60;;;;;;5035450;28;20448;-86
2021/05/21 16:21:32;;;;;;;21.57;2.03;;;13.30;24.10;;;;;;5034360;28;20587;-90
2021/05/21 16:24:01;;;;;;;18.87;1.50;;;13.30;25.50;;;;;;5035576;28;20552;-87
2021/05/21 16:26:37;;;;;;;16.33;1.33;;;13.70;15.60;;;;;;5034484;28;20460;-86
2021/05/21 16:29:16;;;;;;;16.07;1.33;;;14.90;3.60;;;;;;5034633;28;20480;-85
2021/05/21 16:31:48;;;;;;;16.90;1.60;;;16.20;1.80;;;;;;5034696;28;20955;-86
2021/05/21 16:34:35;;;;;;;16.30;1.30;;;17.40;1.00;;;;;;5034609;28;20460;-85
2021/05/21 16:37:03;;;;;;;20.80;1.60;;;18.20;1.00;;;;;;5032542;28;20448;-88
2021/05/21 16:39:31;;;;;;;20.23;1.83;;;19.00;1.00;;;;;;5034581;28;20522;-84
2021/05/21 16:41:58;;;;;;;22.50;1.30;;;19.80;1.00;;;;;;5034334;28;20498;-83
2021/05/21 16:44:25;;;;;;;22.87;1.80;;;20.50;1.00;;;;;;5034341;28;20927;-80
2021/05/21 16:46:53;;;;;;;24.87;1.57;;;20.50;1.00;;;;;;5034410;28;20535;-84
2021/05/21 16:49:32;;;;;;;25.33;1.60;;;21.10;1.00;;;;;;5034618;28;20495;-83
2021/05/21 16:52:09;;;;;;;25.93;1.77;;;21.00;1.00;;;;;;5033567;28;20932;-82
2021/05/21 16:54:36;;;;;;;27.90;2.20;;;20.70;1.00;;;;;;5032969;28;20452;-81
2021/05/21 16:57:15;;;;;;;25.27;1.83;;;20.20;1.00;;;;;;5033866;28;20468;-83
2021/05/21 16:59:46;;;;;;;24.77;1.53;;;19.40;1.00;;;;;;5031816;28;20547;-83
2021/05/21 17:02:23;;;;;;;26.73;2.47;;;19.50;1.00;;;;;;5032568;28;20448;-81
2021/05/21 17:04:55;;;;;;;28.13;7.73;;;19.60;1.00;;;;;;5032041;28;20451;-84
2021/05/21 17:07:33;;;;;;;27.60;2.30;;;18.90;1.00;;;;;;5035720;28;20451;-86
2021/05/21 17:10:03;;;;;;;27.00;2.27;;;18.60;1.00;;;;;;5029101;28;20449;-83
2021/05/21 17:12:32;;;;;;;26.60;1.90;;;18.70;1.00;;;;;;5032081;28;20456;-86
2021/05/21 17:15:03;;;;;;;25.30;2.07;;;19.00;1.00;;;;;;5028348;28;20499;-84
2021/05/21 17:40:53;;;;;;;24.43;1.50;;;18.90;1.00;;;;;;5033641;28;21013;-86
2021/05/21 17:43:34;;;;;;;18.90;1.37;;;19.30;1.00;;;;;;5032796;28;20450;-83
2021/05/21 17:46:24;;;;;;;21.03;1.53;;;19.90;1.00;;;;;;5034798;28;20525;-85
2021/05/21 17:49:10;;;;;;;18.97;1.30;;;18.40;1.00;;;;;;5035209;28;20539;-84
2021/05/21 17:54:32;;;;;;;19.40;1.40;;;16.10;1.00;;;;;;5025830;28;20451;-87
2021/05/21 18:12:38;;;;;;;21.30;1.50;;;14.90;3.10;;;;;;5028604;28;20464;-87
2021/05/21 18:18:21;;;;;;;17.93;1.40;;;15.00;2.30;;;;;;5019235;28;20455;-87
2021/05/21 18:42:00;;;;;;;23.37;1.90;;;13.00;34.40;;;;;;5032400;28;20530;-82
2021/05/21 18:44:48;;;;;;;14.70;1.83;;;12.20;73.40;;;;;;5012770;28;20489;-84
2021/05/21 18:47:29;;;;;;;11.50;1.40;;;12.20;72.10;;;;;;5015779;28;20452;-82
2021/05/21 19:01:41;;;;;;;10.00;1.60;;;12.80;50.20;;;;;;4988891;28;20476;-87
2021/05/21 19:04:17;;;;;;;11.40;2.90;;;11.70;65.90;;;;;;5031666;28;20804;-89
2021/05/21 19:07:07;;;;;;;12.90;3.33;;;11.00;81.50;;;;;;5011597;28;20865;-82
2021/05/21 19:09:41;;;;;;;10.60;5.43;;;10.50;98.10;;;;;;5012779;28;20883;-83
2021/05/21 19:12:14;;;;;;;14.83;2.90;;;10.10;99.90;;;;;;5018340;28;20448;-79
2021/05/21 19:15:01;;;;;;;15.63;3.50;;;9.90;99.90;;;;;;5020486;28;20451;-79
2021/05/21 19:17:31;;;;;;;11.40;4.00;;;9.90;99.90;;;;;;5033995;28;20460;-87
2021/05/21 19:20:00;;;;;;;9.50;2.63;;;9.80;99.90;;;;;;5035310;28;20465;-83
2021/05/21 19:22:27;;;;;;;13.07;3.17;;;9.70;99.90;;;;;;5035762;28;20927;-85
2021/05/21 19:24:54;;;;;;;14.40;6.27;;;9.70;99.90;;;;;;5035687;28;20479;-84
2021/05/21 19:27:21;;;;;;;10.60;7.40;;;9.70;99.90;;;;;;5035883;28;20559;-87
2021/05/21 19:29:51;;;;;;;17.50;15.80;;;9.70;99.90;;;;;;5035483;28;20478;-88
2021/05/21 19:32:22;;;;;;;12.87;10.83;;;9.60;99.90;;;;;;5035477;28;20444;-89
2021/05/21 19:35:09;;;;;;;10.50;6.70;;;9.70;99.90;;;;;;5036138;28;20456;-88
2021/05/21 19:40:33;;;;;;;9.10;2.30;;;9.70;99.90;;;;;;5035445;28;20474;-88
2021/05/21 19:45:54;;;;;;;10.10;4.60;;;9.60;99.90;;;;;;5028199;28;20481;-87
2021/05/21 20:03:05;;;;;;;53.97;50.90;;;9.00;99.90;;;;;;5035495;28;20431;-84
2021/05/21 20:14:06;;;;;;;55.80;51.83;;;9.00;99.90;;;;;;5030063;28;20459;-87
2021/05/21 20:16:32;;;;;;;61.97;58.70;;;9.00;99.90;;;;;;5023290;28;20447;-86
2021/05/21 20:18:58;;;;;;;66.20;62.63;;;8.90;99.90;;;;;;5015288;28;20464;-83
2021/05/21 20:21:25;;;;;;;66.33;62.70;;;8.90;99.90;;;;;;5032300;28;20574;-87
2021/05/21 20:23:52;;;;;;;75.20;71.00;;;8.70;99.90;;;;;;5034524;28;20459;-84
2021/05/21 20:26:22;;;;;;;72.57;68.87;;;8.70;99.90;;;;;;5033575;28;20865;-89
2021/05/21 20:28:53;;;;;;;71.97;68.20;;;8.70;99.90;;;;;;5034479;28;20460;-86
2021/05/21 20:34:33;;;;;;;76.17;72.13;;;8.70;99.90;;;;;;5025662;28;20566;-85
2021/05/21 20:40:12;;;;;;;79.30;74.00;;;8.80;99.90;;;;;;5018548;28;20444;-89
2021/05/21 20:43:01;;;;;;;83.27;78.53;;;8.60;99.90;;;;;;5034670;28;20531;-87
2021/05/21 21:01:57;;;;;;;9.73;3.27;;;9.60;99.90;;;;;;5033975;28;20502;-84
2021/05/21 21:04:40;;;;;;;11.10;3.70;;;9.60;99.90;;;;;;5034466;28;20484;-86
2021/05/21 21:07:09;;;;;;;11.90;2.97;;;9.70;99.90;;;;;;5032890;28;20472;-87
2021/05/21 21:09:40;;;;;;;13.07;2.80;;;9.70;99.90;;;;;;5034039;28;20444;-85
2021/05/21 21:12:23;;;;;;;9.33;2.50;;;9.70;99.90;;;;;;5032938;28;20467;-86
2021/05/21 21:18:08;;;;;;;14.50;3.57;;;9.70;99.90;;;;;;5033023;28;20858;-87
2021/05/21 21:51:28;;;;;;;8.73;1.80;;;9.40;99.90;;;;;;5032970;28;20482;-87
2021/05/21 21:54:00;;;;;;;17.03;2.63;;;9.40;99.90;;;;;;5034139;28;20961;-85
2021/05/21 21:56:47;;;;;;;9.50;3.00;;;9.50;99.90;;;;;;5034208;28;20444;-85
2021/05/21 21:59:18;;;;;;;9.20;2.80;;;9.30;99.90;;;;;;5034173;28;20483;-86
2021/05/21 22:01:53;;;;;;;10.53;2.80;;;9.20;99.90;;;;;;5014117;28;20485;-86
2021/05/21 22:04:23;;;;;;;9.17;2.63;;;9.20;99.90;;;;;;5018147;28;20447;-83
2021/05/21 22:07:15;;;;;;;12.83;2.60;;;9.10;99.90;;;;;;5032799;28;20530;-84
2021/05/21 22:12:54;;;;;;;15.83;3.80;;;9.20;99.90;;;;;;5033873;28;20491;-86
2021/05/21 22:15:39;;;;;;;11.83;3.07;;;9.20;99.90;;;;;;5033648;28;20448;-87
2021/05/21 22:18:19;;;;;;;16.63;3.10;;;9.10;99.90;;;;;;5033639;28;20954;-84
2021/05/21 22:20:55;;;;;;;9.23;3.07;;;9.10;99.90;;;;;;5032594;28;20476;-85
2021/05/21 22:23:35;;;;;;;9.77;3.97;;;9.00;99.90;;;;;;5034139;28;20463;-86
2021/05/21 22:26:01;;;;;;;9.13;4.07;;;9.00;99.90;;;;;;5033778;28;20540;-87
2021/05/21 22:28:28;;;;;;;9.00;2.47;;;8.80;99.90;;;;;;5033372;28;20456;-84
2021/05/21 22:30:54;;;;;;;10.37;2.67;;;9.00;99.90;;;;;;5033674;28;20991;-83
2021/05/21 22:33:21;;;;;;;8.60;2.90;;;9.00;99.90;;;;;;5033683;28;20568;-86
2021/05/21 22:35:48;;;;;;;9.47;2.33;;;8.90;99.90;;;;;;5032431;28;20458;-86
2021/05/21 22:38:14;;;;;;;9.00;2.73;;;9.00;99.90;;;;;;5033990;28;20456;-85
2021/05/21 22:40:41;;;;;;;8.60;2.07;;;8.90;99.90;;;;;;5033563;28;20562;-88
2021/05/21 22:43:07;;;;;;;13.40;2.67;;;9.00;99.90;;;;;;5034164;28;20956;-84
2021/05/21 22:45:35;;;;;;;9.00;2.20;;;9.00;99.90;;;;;;5033606;28;20966;-85
2021/05/21 22:48:02;;;;;;;9.70;3.10;;;9.10;99.90;;;;;;5033793;28;20858;-88
2021/05/21 22:50:29;;;;;;;26.23;2.43;;;9.00;99.90;;;;;;5031997;28;20526;-85
2021/05/21 22:52:58;;;;;;;8.60;2.00;;;9.10;99.90;;;;;;5036077;28;20806;-85
2021/05/21 22:55:24;;;;;;;10.20;2.40;;;9.20;99.90;;;;;;5037195;28;20514;-86
2021/05/21 22:57:50;;;;;;;8.63;2.20;;;9.40;99.90;;;;;;5037322;28;20584;-86
2021/05/21 23:00:18;;;;;;;10.13;3.63;;;9.30;99.90;;;;;;5036978;28;20546;-82
2021/05/21 23:02:47;;;;;;;10.27;2.67;;;9.20;99.90;;;;;;5037050;28;20531;-85
2021/05/21 23:05:13;;;;;;;13.00;1.97;;;9.30;99.90;;;;;;5035592;28;20601;-85
2021/05/21 23:07:58;;;;;;;10.90;2.23;;;9.40;99.90;;;;;;5036853;28;20479;-83
2021/05/21 23:10:24;;;;;;;8.77;2.40;;;9.30;99.90;;;;;;5036297;28;20456;-85
2021/05/21 23:12:53;;;;;;;10.60;2.03;;;9.40;99.90;;;;;;5036567;28;20487;-83
2021/05/21 23:15:19;;;;;;;9.10;2.20;;;9.30;99.90;;;;;;5036715;28;20456;-83
2021/05/21 23:17:48;;;;;;;8.90;2.30;;;9.30;99.90;;;;;;5036901;28;20471;-81
2021/05/21 23:20:17;;;;;;;13.43;3.03;;;9.20;99.90;;;;;;5034796;28;20452;-86
2021/05/21 23:22:44;;;;;;;11.03;2.53;;;9.20;99.90;;;;;;5035968;28;20463;-86
2021/05/21 23:25:12;;;;;;;10.80;2.30;;;9.10;99.90;;;;;;5036276;28;20456;-85
2021/05/21 23:27:38;;;;;;;8.70;2.30;;;9.00;99.90;;;;;;5035892;28;20455;-85
2021/05/21 23:30:06;;;;;;;15.30;3.53;;;9.00;99.90;;;;;;5036059;28;20491;-82
2021/05/21 23:32:33;;;;;;;10.33;2.33;;;9.10;99.90;;;;;;5036082;28;20452;-86
2021/05/21 23:34:59;;;;;;;17.27;3.53;;;9.20;99.90;;;;;;5035541;28;20456;-81
2021/05/21 23:37:25;;;;;;;11.63;2.33;;;9.10;99.90;;;;;;5035058;28;20959;-84
2021/05/21 23:39:52;;;;;;;9.20;2.20;;;9.00;99.90;;;;;;5035729;28;20943;-82
2021/05/21 23:42:21;;;;;;;10.33;2.97;;;9.10;99.90;;;;;;5036017;28;20571;-86
2021/05/21 23:44:47;;;;;;;8.90;2.30;;;9.10;99.90;;;;;;5035740;28;20460;-83
2021/05/21 23:47:14;;;;;;;10.07;3.20;;;9.10;99.90;;;;;;5035901;28;20866;-85
2021/05/21 23:49:40;;;;;;;8.90;2.60;;;9.00;99.90;;;;;;5035564;28;20479;-85
2021/05/21 23:52:06;;;;;;;9.37;3.77;;;9.10;99.90;;;;;;5035177;28;20464;-84
2021/05/21 23:54:33;;;;;;;15.93;3.33;;;9.00;99.90;;;;;;5035358;28;21009;-85
2021/05/21 23:57:00;;;;;;;8.60;2.20;;;9.10;99.90;;;;;;5035931;28;20464;-82
2021/05/21 23:59:26;;;;;;;8.73;2.30;;;9.30;99.90;;;;;;5035320;28;20544;-80
